createdAt,value
2024-02-16T00:00:18.264Z,73.90
2024-02-16T00:03:06.507Z,73.59
2024-02-16T00:05:34.981Z,73.41
2024-02-16T00:08:04.495Z,72.66
2024-02-16T00:10:32.743Z,73.15
2024-02-16T00:13:00.923Z,73.36
2024-02-16T00:15:29.151Z,73.42
2024-02-16T00:17:57.587Z,73.22
2024-02-16T00:20:25.844Z,73.10
2024-02-16T00:22:54.216Z,72.38
2024-02-16T00:25:22.801Z,72.71
2024-02-16T00:27:54.548Z,72.85
2024-02-16T00:30:24.132Z,72.71
2024-02-16T00:32:54.323Z,72.07
2024-02-16T00:35:22.765Z,72.26
2024-02-16T00:37:51.036Z,72.42
2024-02-16T00:40:19.449Z,72.57
2024-02-16T00:42:47.582Z,72.08
2024-02-16T00:45:15.885Z,71.56
2024-02-16T00:47:44.180Z,71.91
2024-02-16T00:50:12.724Z,72.55
2024-02-16T00:52:42.129Z,72.71
2024-02-16T00:55:11.601Z,72.72
2024-02-16T00:57:40.103Z,72.53
2024-02-16T01:00:10.744Z,72.61
2024-02-16T01:02:39.248Z,73.08
2024-02-16T01:05:08.289Z,73.62
2024-02-16T01:07:36.551Z,73.66
2024-02-16T01:10:05.530Z,73.88
2024-02-16T01:12:33.784Z,74.08
2024-02-16T01:15:02.692Z,74.77
2024-02-16T01:17:31.503Z,75.35
2024-02-16T01:20:00.431Z,75.65
2024-02-16T01:22:30.745Z,75.94
2024-02-16T01:24:59.009Z,75.99
2024-02-16T01:27:29.306Z,76.13
2024-02-16T01:29:58.053Z,76.24
2024-02-16T01:32:26.393Z,76.46
2024-02-16T01:34:55.037Z,76.53
2024-02-16T01:37:23.790Z,76.49
2024-02-16T01:39:51.932Z,76.62
2024-02-16T01:42:20.280Z,76.66
2024-02-16T01:44:48.846Z,76.54
2024-02-16T01:47:17.905Z,76.65
2024-02-16T01:49:46.685Z,76.70
2024-02-16T01:52:15.051Z,76.61
2024-02-16T01:54:43.632Z,76.71
2024-02-16T01:57:13.688Z,76.90
2024-02-16T01:59:42.124Z,76.86
2024-02-16T02:02:10.291Z,76.96
2024-02-16T02:04:38.857Z,76.97
2024-02-16T02:07:15.112Z,76.76
2024-02-16T02:09:43.827Z,76.59
2024-02-16T02:12:12.289Z,76.59
2024-02-16T02:14:40.579Z,76.57
2024-02-16T02:17:08.794Z,76.50
2024-02-16T02:19:37.158Z,76.62
2024-02-16T02:22:05.712Z,76.70
2024-02-16T02:24:34.004Z,76.66
2024-02-16T02:27:02.626Z,76.65
2024-02-16T02:29:31.354Z,76.53
2024-02-16T02:31:59.528Z,76.39
2024-02-16T02:34:28.382Z,76.30
2024-02-16T02:36:56.597Z,76.22
2024-02-16T02:39:24.893Z,76.17
2024-02-16T02:41:53.277Z,76.06
2024-02-16T02:44:21.525Z,76.02
2024-02-16T02:46:49.789Z,75.97
2024-02-16T02:49:18.252Z,75.88
2024-02-16T02:51:46.548Z,75.86
2024-02-16T02:54:14.898Z,75.72
2024-02-16T02:56:43.927Z,75.21
2024-02-16T02:59:12.115Z,74.86
2024-02-16T03:01:40.597Z,74.11
2024-02-16T03:04:08.960Z,74.02
2024-02-16T03:06:37.826Z,74.20
2024-02-16T03:09:06.678Z,74.46
2024-02-16T03:11:34.916Z,74.61
2024-02-16T03:14:03.275Z,74.77
2024-02-16T03:16:31.550Z,75.00
2024-02-16T03:18:59.865Z,75.17
2024-02-16T03:21:28.699Z,75.30
2024-02-16T03:23:57.140Z,75.40
2024-02-16T03:26:25.373Z,75.43
2024-02-16T03:28:53.851Z,75.32
2024-02-16T03:31:26.012Z,75.10
2024-02-16T03:33:54.466Z,74.96
2024-02-16T03:36:23.039Z,75.15
2024-02-16T03:38:51.805Z,75.40
2024-02-16T03:41:22.509Z,75.58
2024-02-16T03:43:51.583Z,75.48
2024-02-16T03:46:19.808Z,75.56
2024-02-16T03:48:48.355Z,75.49
2024-02-16T03:51:16.765Z,75.28
2024-02-16T03:53:46.319Z,74.96
2024-02-16T03:56:20.406Z,74.60
2024-02-16T03:58:49.139Z,74.41
2024-02-16T04:01:17.436Z,74.33
2024-02-16T04:03:45.661Z,74.36
2024-02-16T04:06:14.189Z,74.37
2024-02-16T04:08:42.321Z,74.48
2024-02-16T04:11:13.697Z,74.74
2024-02-16T04:13:42.573Z,74.29
2024-02-16T04:16:10.815Z,74.41
2024-02-16T04:18:39.233Z,74.51
2024-02-16T04:21:07.805Z,74.69
2024-02-16T04:23:36.068Z,74.88
2024-02-16T04:26:04.287Z,74.38
2024-02-16T04:28:32.518Z,73.70
2024-02-16T04:31:00.689Z,73.46
2024-02-16T04:33:29.246Z,73.31
2024-02-16T04:35:57.581Z,73.40
2024-02-16T04:38:25.823Z,73.37
2024-02-16T04:40:54.215Z,73.01
2024-02-16T04:43:22.472Z,72.82
2024-02-16T04:45:50.927Z,72.72
2024-02-16T04:48:19.409Z,72.80
2024-02-16T04:50:47.692Z,73.14
2024-02-16T04:53:16.199Z,73.42
2024-02-16T04:55:44.458Z,73.61
2024-02-16T04:58:13.037Z,73.80
2024-02-16T05:00:41.437Z,73.36
2024-02-16T05:03:09.828Z,73.61
2024-02-16T05:05:38.449Z,74.79
2024-02-16T05:08:07.368Z,75.36
2024-02-16T05:10:35.541Z,75.59
2024-02-16T05:13:04.027Z,75.68
2024-02-16T05:15:32.954Z,75.80
2024-02-16T05:18:01.487Z,76.19
2024-02-16T05:20:30.627Z,76.19
2024-02-16T05:22:58.860Z,76.33
2024-02-16T05:25:27.138Z,76.48
2024-02-16T05:27:55.309Z,76.54
2024-02-16T05:30:23.528Z,76.66
2024-02-16T05:32:54.569Z,76.58
2024-02-16T05:35:22.798Z,76.56
2024-02-16T05:37:52.967Z,76.76
2024-02-16T05:40:25.876Z,76.83
2024-02-16T05:42:54.959Z,77.07
2024-02-16T05:45:23.232Z,77.05
2024-02-16T05:47:52.384Z,77.13
2024-02-16T05:50:22.436Z,77.24
2024-02-16T05:52:51.378Z,77.51
2024-02-16T05:55:22.526Z,77.31
2024-02-16T05:57:50.806Z,77.00
2024-02-16T06:00:22.837Z,76.42
2024-02-16T06:02:51.280Z,76.15
2024-02-16T06:05:21.783Z,76.25
2024-02-16T06:07:50.041Z,76.28
2024-02-16T06:10:19.565Z,75.74
2024-02-16T06:12:47.806Z,75.93
2024-02-16T06:15:16.455Z,76.05
2024-02-16T06:17:45.082Z,76.52
2024-02-16T06:20:16.206Z,76.61
2024-02-16T06:22:45.629Z,76.63
2024-02-16T06:25:14.233Z,76.60
2024-02-16T06:27:42.760Z,76.67
2024-02-16T06:30:14.973Z,76.62
2024-02-16T06:32:43.935Z,76.39
2024-02-16T06:35:12.880Z,76.39
2024-02-16T06:37:41.411Z,76.70
2024-02-16T06:40:13.035Z,77.09
2024-02-16T06:42:41.332Z,77.22
2024-02-16T06:45:10.278Z,77.06
2024-02-16T06:47:38.588Z,76.96
2024-02-16T06:50:08.537Z,77.33
2024-02-16T06:52:36.810Z,77.46
2024-02-16T06:55:06.009Z,77.64
2024-02-16T06:57:34.151Z,77.76
2024-02-16T07:00:04.578Z,77.90
2024-02-16T07:02:33.791Z,77.89
2024-02-16T07:05:02.056Z,77.90
2024-02-16T07:07:30.245Z,77.68
2024-02-16T07:09:58.408Z,77.59
2024-02-16T07:12:26.612Z,77.38
2024-02-16T07:14:55.193Z,77.19
2024-02-16T07:17:23.537Z,76.89
2024-02-16T07:19:52.054Z,76.73
2024-02-16T07:22:20.200Z,76.44
2024-02-16T07:24:48.196Z,76.31
2024-02-16T07:27:16.494Z,76.30
2024-02-16T07:29:44.764Z,76.05
2024-02-16T07:32:13.807Z,75.83
2024-02-16T07:34:42.112Z,75.47
2024-02-16T07:37:10.258Z,75.11
2024-02-16T07:39:38.661Z,74.61
2024-02-16T07:42:07.552Z,74.40
2024-02-16T07:44:35.691Z,74.17
2024-02-16T07:47:04.525Z,73.59
2024-02-16T07:49:33.428Z,73.03
2024-02-16T07:52:01.656Z,72.56
2024-02-16T07:54:30.881Z,72.29
2024-02-16T07:57:02.082Z,72.00
2024-02-16T07:59:30.521Z,71.27
2024-02-16T08:01:58.590Z,71.34
2024-02-16T08:04:26.806Z,71.11
2024-02-16T08:06:55.138Z,70.64
2024-02-16T08:09:23.500Z,70.67
2024-02-16T08:11:52.115Z,70.08
2024-02-16T08:14:20.330Z,70.13
2024-02-16T08:16:48.609Z,69.77
2024-02-16T08:19:17.898Z,69.70
2024-02-16T08:21:46.329Z,69.42
2024-02-16T08:24:14.478Z,69.04
2024-02-16T08:26:42.724Z,69.22
2024-02-16T08:29:11.295Z,69.23
2024-02-16T08:31:39.513Z,68.96
2024-02-16T08:34:08.882Z,69.24
2024-02-16T08:36:39.229Z,68.61
2024-02-16T08:39:08.008Z,68.59
2024-02-16T08:41:36.252Z,68.48
2024-02-16T08:44:05.046Z,68.60
2024-02-16T08:46:33.627Z,68.65
2024-02-16T08:49:01.988Z,68.25
2024-02-16T08:51:30.229Z,68.00
2024-02-16T08:53:58.366Z,68.09
2024-02-16T08:56:26.525Z,67.61
2024-02-16T08:58:55.621Z,67.58
2024-02-16T09:01:34.171Z,67.85
2024-02-16T09:04:02.822Z,67.35
2024-02-16T09:06:31.698Z,66.63
2024-02-16T09:08:59.988Z,65.70
2024-02-16T09:11:29.201Z,65.98
2024-02-16T09:13:57.663Z,65.87
2024-02-16T09:16:26.120Z,65.33
2024-02-16T09:18:54.320Z,64.58
2024-02-16T09:21:25.416Z,64.59
2024-02-16T09:23:54.240Z,63.79
2024-02-16T09:26:23.968Z,62.68
2024-02-16T09:28:52.118Z,63.12
2024-02-16T09:31:20.387Z,63.19
2024-02-16T09:33:48.867Z,63.21
2024-02-16T09:36:17.171Z,61.72
2024-02-16T09:38:45.418Z,61.09
2024-02-16T09:41:14.716Z,60.80
2024-02-16T09:43:43.092Z,60.77
2024-02-16T09:46:11.977Z,59.82
2024-02-16T09:48:42.099Z,58.38
2024-02-16T09:51:10.462Z,58.10
2024-02-16T09:53:38.646Z,58.53
2024-02-16T09:56:10.199Z,58.29
2024-02-16T09:58:38.482Z,58.67
2024-02-16T10:01:07.004Z,59.38
2024-02-16T10:03:35.546Z,59.15
2024-02-16T10:06:14.832Z,58.86
2024-02-16T10:09:09.687Z,58.75
2024-02-16T10:11:40.539Z,59.21
2024-02-16T10:14:11.252Z,58.14
2024-02-16T10:16:39.513Z,58.12
2024-02-16T10:19:15.708Z,58.68
2024-02-16T10:21:45.847Z,57.96
2024-02-16T10:24:16.335Z,58.10
2024-02-16T10:26:44.794Z,57.66
2024-02-16T10:29:14.714Z,57.37
2024-02-16T10:31:43.402Z,57.83
2024-02-16T10:34:12.433Z,57.44
2024-02-16T10:36:42.769Z,58.07
2024-02-16T10:39:13.049Z,58.27
2024-02-16T10:41:42.984Z,58.14
2024-02-16T10:44:11.951Z,57.92
2024-02-16T10:46:40.417Z,58.14
2024-02-16T10:49:09.393Z,56.29
2024-02-16T10:51:40.783Z,55.03
2024-02-16T10:54:09.583Z,53.65
2024-02-16T10:56:39.594Z,53.18
2024-02-16T10:59:10.277Z,53.29
2024-02-16T11:01:47.330Z,53.42
2024-02-16T11:04:24.094Z,52.95
2024-02-16T11:07:01.185Z,53.86
2024-02-16T11:09:31.483Z,53.15
2024-02-16T11:12:00.949Z,52.59
2024-02-16T11:14:39.505Z,52.59
2024-02-16T11:17:14.947Z,52.49
2024-02-16T11:19:44.531Z,51.77
2024-02-16T11:22:17.046Z,50.50
2024-02-16T11:24:47.043Z,49.69
2024-02-16T11:27:21.052Z,48.41
2024-02-16T11:29:50.999Z,49.05
2024-02-16T11:32:20.512Z,48.75
2024-02-16T11:34:49.492Z,47.37
2024-02-16T11:37:18.622Z,47.55
2024-02-16T11:39:48.334Z,47.03
2024-02-16T11:42:21.308Z,46.93
2024-02-16T11:44:54.978Z,45.38
2024-02-16T11:47:29.776Z,44.68
2024-02-16T11:50:02.194Z,46.37
2024-02-16T11:52:30.622Z,44.24
2024-02-16T11:55:02.781Z,42.91
2024-02-16T11:57:32.121Z,42.42
2024-02-16T12:00:00.557Z,41.63
2024-02-16T12:02:29.615Z,43.23
2024-02-16T12:05:03.544Z,43.41
2024-02-16T12:07:34.647Z,43.65
2024-02-16T12:10:06.401Z,43.36
2024-02-16T12:12:36.303Z,43.19
2024-02-16T12:15:07.280Z,43.17
2024-02-16T12:17:36.206Z,43.29
2024-02-16T12:20:11.823Z,44.25
2024-02-16T12:22:40.217Z,44.34
2024-02-16T12:25:08.976Z,43.45
2024-02-16T12:27:37.199Z,43.33
2024-02-16T12:30:06.213Z,43.98
2024-02-16T12:32:34.478Z,43.18
2024-02-16T12:35:04.720Z,43.10
2024-02-16T12:37:33.262Z,41.73
2024-02-16T12:40:02.704Z,41.12
2024-02-16T12:42:31.020Z,41.33
2024-02-16T12:44:59.172Z,41.82
2024-02-16T12:47:27.504Z,40.89
2024-02-16T12:49:57.875Z,41.01
2024-02-16T12:52:26.096Z,41.77
2024-02-16T12:54:55.358Z,42.18
2024-02-16T12:57:23.805Z,42.23
2024-02-16T12:59:52.056Z,42.66
2024-02-16T13:02:20.398Z,43.03
2024-02-16T13:04:48.790Z,43.49
2024-02-16T13:07:17.286Z,43.81
2024-02-16T13:09:46.813Z,44.33
2024-02-16T13:12:17.489Z,44.56
2024-02-16T13:14:46.916Z,44.76
2024-02-16T13:17:15.299Z,45.11
2024-02-16T13:19:43.904Z,45.23
2024-02-16T13:22:12.256Z,44.93
2024-02-16T13:24:40.560Z,44.92
2024-02-16T13:27:09.153Z,45.48
2024-02-16T13:29:38.473Z,45.86
2024-02-16T13:32:06.895Z,45.69
2024-02-16T13:34:34.988Z,45.86
2024-02-16T13:37:03.188Z,46.27
2024-02-16T13:39:31.758Z,46.71
2024-02-16T13:42:00.016Z,46.82
2024-02-16T13:44:28.551Z,47.40
2024-02-16T13:46:56.749Z,47.73
2024-02-16T13:49:25.084Z,48.30
2024-02-16T13:51:53.484Z,48.97
2024-02-16T13:54:23.597Z,48.98
2024-02-16T13:56:51.643Z,48.59
2024-02-16T13:59:20.431Z,48.54
2024-02-16T14:01:49.539Z,48.79
2024-02-16T14:04:17.879Z,48.92
2024-02-16T14:06:46.818Z,48.88
2024-02-16T14:09:23.888Z,49.22
2024-02-16T14:11:57.574Z,49.21
2024-02-16T14:14:32.939Z,49.57
2024-02-16T14:17:06.313Z,49.50
2024-02-16T14:19:38.751Z,50.13
2024-02-16T14:22:08.583Z,50.20
2024-02-16T14:24:37.046Z,50.44
2024-02-16T14:27:06.243Z,50.90
2024-02-16T14:29:34.740Z,51.05
2024-02-16T14:32:03.011Z,50.95
2024-02-16T14:34:32.417Z,51.47
2024-02-16T14:37:00.892Z,52.01
2024-02-16T14:39:29.213Z,52.24
2024-02-16T14:41:57.454Z,52.25
2024-02-16T14:44:25.824Z,52.16
2024-02-16T14:46:54.008Z,52.24
2024-02-16T14:49:23.297Z,52.27
2024-02-16T14:51:54.266Z,52.78
2024-02-16T14:54:22.553Z,52.87
2024-02-16T14:56:54.947Z,52.94
2024-02-16T14:59:23.698Z,52.21
2024-02-16T15:01:53.479Z,52.02
2024-02-16T15:04:22.899Z,51.68
2024-02-16T15:06:51.386Z,51.79
2024-02-16T15:09:19.920Z,51.88
2024-02-16T15:11:48.733Z,52.03
2024-02-16T15:14:19.203Z,52.26
2024-02-16T15:16:48.694Z,52.56
2024-02-16T15:19:16.961Z,52.82
2024-02-16T15:21:46.040Z,53.18
2024-02-16T15:24:14.565Z,53.33
2024-02-16T15:26:42.785Z,53.59
2024-02-16T15:29:11.265Z,54.01
2024-02-16T15:31:39.546Z,54.43
2024-02-16T15:34:08.095Z,54.28
2024-02-16T15:36:36.959Z,54.66
2024-02-16T15:39:05.846Z,54.94
2024-02-16T15:41:34.476Z,55.29
2024-02-16T15:44:03.213Z,55.21
2024-02-16T15:46:31.650Z,55.38
2024-02-16T15:48:59.890Z,55.98
2024-02-16T15:51:30.343Z,56.19
2024-02-16T15:53:59.166Z,56.07
2024-02-16T15:56:28.324Z,56.53
2024-02-16T15:59:00.874Z,56.62
2024-02-16T16:04:37.330Z,57.14
2024-02-16T16:07:05.845Z,57.47
2024-02-16T16:09:34.303Z,57.70
2024-02-16T16:12:03.288Z,57.85
2024-02-16T16:14:31.518Z,58.44
2024-02-16T16:16:59.794Z,58.82
2024-02-16T16:19:28.809Z,58.87
2024-02-16T16:21:57.568Z,58.93
2024-02-16T16:24:25.782Z,59.45
2024-02-16T16:26:54.575Z,59.82
2024-02-16T16:29:22.803Z,59.94
2024-02-16T16:31:51.319Z,60.12
2024-02-16T16:34:19.787Z,60.39
2024-02-16T16:36:48.131Z,60.64
2024-02-16T16:39:18.603Z,61.01
2024-02-16T16:41:47.051Z,61.22
2024-02-16T16:44:15.939Z,60.85
2024-02-16T16:46:44.120Z,62.55
2024-02-16T16:49:13.302Z,63.92
2024-02-16T16:51:41.510Z,63.85
2024-02-16T16:54:10.546Z,63.43
2024-02-16T16:56:38.851Z,62.83
2024-02-16T16:59:06.931Z,62.22
2024-02-16T17:01:37.937Z,61.80
2024-02-16T17:04:06.289Z,61.42
2024-02-16T17:06:35.181Z,60.95
2024-02-16T17:09:04.005Z,60.66
2024-02-16T17:11:37.458Z,59.52
2024-02-16T17:14:09.339Z,58.42
2024-02-16T17:16:37.752Z,58.57
2024-02-16T17:19:05.994Z,58.71
2024-02-16T17:21:34.660Z,59.19
2024-02-16T17:24:03.011Z,59.42
2024-02-16T17:26:31.470Z,60.10
2024-02-16T17:28:59.646Z,60.65
2024-02-16T17:31:27.911Z,60.77
2024-02-16T17:33:56.202Z,61.26
2024-02-16T17:36:24.674Z,61.33
2024-02-16T17:38:52.946Z,61.61
2024-02-16T17:41:24.211Z,61.71
2024-02-16T17:43:52.259Z,62.40
2024-02-16T17:46:20.633Z,63.55
2024-02-16T17:48:48.960Z,63.42
2024-02-16T17:51:17.421Z,62.72
2024-02-16T17:53:45.670Z,62.31
2024-02-16T17:56:13.839Z,61.44
2024-02-16T17:58:41.903Z,61.03
2024-02-16T18:01:10.497Z,60.66
2024-02-16T18:03:38.843Z,59.52
2024-02-16T18:06:08.325Z,58.58
2024-02-16T18:08:36.658Z,58.62
2024-02-16T18:11:04.924Z,59.02
2024-02-16T18:13:33.090Z,59.65
2024-02-16T18:16:01.329Z,60.02
2024-02-16T18:18:29.751Z,60.38
2024-02-16T18:20:58.172Z,60.76
2024-02-16T18:23:28.648Z,61.31
2024-02-16T18:25:56.927Z,62.35
2024-02-16T18:28:29.895Z,63.60
2024-02-16T18:31:02.579Z,63.66
2024-02-16T18:33:31.287Z,63.31
2024-02-16T18:36:00.388Z,62.87
2024-02-16T18:38:29.045Z,62.40
2024-02-16T18:40:57.113Z,61.67
2024-02-16T18:43:25.392Z,61.22
2024-02-16T18:45:53.806Z,61.11
2024-02-16T18:48:25.929Z,61.10
2024-02-16T18:50:54.207Z,60.93
2024-02-16T18:53:22.389Z,60.58
2024-02-16T18:55:51.067Z,60.42
2024-02-16T18:58:20.575Z,59.63
2024-02-16T19:00:49.172Z,58.60
2024-02-16T19:03:17.773Z,59.01
2024-02-16T19:05:46.428Z,59.48
2024-02-16T19:08:14.698Z,60.04
2024-02-16T19:10:44.749Z,60.54
2024-02-16T19:13:13.391Z,61.98
2024-02-16T19:15:41.581Z,63.41
2024-02-16T19:18:10.333Z,63.70
2024-02-16T19:20:38.829Z,63.69
2024-02-16T19:23:09.976Z,63.48
2024-02-16T19:25:38.154Z,63.07
2024-02-16T19:28:06.625Z,62.80
2024-02-16T19:30:34.792Z,62.75
2024-02-16T19:33:03.839Z,62.76
2024-02-16T19:35:32.383Z,62.77
2024-02-16T19:38:00.647Z,62.31
2024-02-16T19:40:29.332Z,61.74
2024-02-16T19:42:58.222Z,61.54
2024-02-16T19:45:29.316Z,61.30
2024-02-16T19:47:58.106Z,61.41
2024-02-16T19:50:26.956Z,61.46
2024-02-16T19:52:55.316Z,61.44
2024-02-16T19:55:24.623Z,61.60
2024-02-16T19:57:52.998Z,61.64
2024-02-16T20:00:21.910Z,61.69
2024-02-16T20:02:53.240Z,61.88
2024-02-16T20:05:24.363Z,62.04
2024-02-16T20:07:52.812Z,62.05
2024-02-16T20:10:21.039Z,62.04
2024-02-16T20:12:49.133Z,61.65
2024-02-16T20:15:19.797Z,61.63
2024-02-16T20:17:48.353Z,61.86
2024-02-16T20:20:17.108Z,61.63
2024-02-16T20:22:45.365Z,62.00
2024-02-16T20:25:13.644Z,61.81
2024-02-16T20:27:44.099Z,62.42
2024-02-16T20:30:12.696Z,61.95
2024-02-16T20:32:44.086Z,62.35
2024-02-16T20:35:13.880Z,61.87
2024-02-16T20:37:42.395Z,61.61
2024-02-16T20:40:11.394Z,61.68
2024-02-16T20:42:39.858Z,61.71
2024-02-16T20:45:08.689Z,61.60
2024-02-16T20:47:37.058Z,61.69
2024-02-16T20:50:06.349Z,61.68
2024-02-16T20:52:34.602Z,61.84
2024-02-16T20:55:02.979Z,61.89
2024-02-16T20:57:31.290Z,62.01
2024-02-16T20:59:59.560Z,62.04
2024-02-16T21:02:28.230Z,61.98
2024-02-16T21:04:56.443Z,62.09
2024-02-16T21:07:24.877Z,62.05
2024-02-16T21:09:54.585Z,62.13
2024-02-16T21:12:22.790Z,62.29
2024-02-16T21:14:51.014Z,62.28
2024-02-16T21:17:19.605Z,62.16
2024-02-16T21:19:48.270Z,62.34
2024-02-16T21:22:17.389Z,62.36
2024-02-16T21:24:45.678Z,62.66
2024-02-16T21:27:13.980Z,62.59
2024-02-16T21:29:44.166Z,62.83
2024-02-16T21:32:12.442Z,62.89
2024-02-16T21:34:41.056Z,62.97
2024-02-16T21:37:09.493Z,62.55
2024-02-16T21:39:37.606Z,62.32
2024-02-16T21:42:07.381Z,62.48
2024-02-16T21:44:37.597Z,62.78
2024-02-16T21:47:06.285Z,62.75
2024-02-16T21:49:34.548Z,63.03
2024-02-16T21:52:02.840Z,63.27
2024-02-16T21:54:31.026Z,63.38
2024-02-16T21:56:59.528Z,63.22
2024-02-16T21:59:28.094Z,63.45
2024-02-16T22:01:56.341Z,63.36
2024-02-16T22:04:24.612Z,63.04
2024-02-16T22:06:54.967Z,63.02
2024-02-16T22:09:23.186Z,62.94
2024-02-16T22:11:51.419Z,63.23
2024-02-16T22:14:19.659Z,63.04
2024-02-16T22:16:47.931Z,62.87
2024-02-16T22:19:16.115Z,62.48
2024-02-16T22:21:45.951Z,62.61
2024-02-16T22:24:14.168Z,62.51
2024-02-16T22:26:42.363Z,62.50
2024-02-16T22:29:10.665Z,62.55
2024-02-16T22:31:42.290Z,62.25
2024-02-16T22:34:13.017Z,62.18
2024-02-16T22:36:41.815Z,62.17
2024-02-16T22:39:10.620Z,62.22
2024-02-16T22:41:39.076Z,62.23
2024-02-16T22:44:07.266Z,62.21
2024-02-16T22:46:37.810Z,62.29
2024-02-16T22:49:06.302Z,62.23
2024-02-16T22:51:40.046Z,62.17
2024-02-16T22:54:14.590Z,62.18
2024-02-16T22:56:44.209Z,62.14
2024-02-16T22:59:12.365Z,62.19
2024-02-16T23:01:40.569Z,62.26
2024-02-16T23:04:09.605Z,62.29
2024-02-16T23:06:38.141Z,62.23
2024-02-16T23:09:10.173Z,62.16
2024-02-16T23:11:42.985Z,62.09
2024-02-16T23:14:11.553Z,62.15
2024-02-16T23:16:39.924Z,62.07
2024-02-16T23:19:08.276Z,62.06
2024-02-16T23:21:36.604Z,62.05
2024-02-16T23:24:07.876Z,62.09
2024-02-16T23:26:36.801Z,62.15
2024-02-16T23:29:05.179Z,62.27
2024-02-16T23:31:33.889Z,62.12
2024-02-16T23:34:02.110Z,61.96
2024-02-16T23:36:30.447Z,62.01
2024-02-16T23:38:58.812Z,62.02
2024-02-16T23:41:27.175Z,62.06
2024-02-16T23:43:57.211Z,62.06
2024-02-16T23:46:25.657Z,62.13
2024-02-16T23:48:53.897Z,62.14
2024-02-16T23:51:23.146Z,62.15
2024-02-16T23:53:51.502Z,61.96
2024-02-16T23:56:19.884Z,61.75
2024-02-16T23:58:48.058Z,61.79
